Time;durP1;ratioP1;P1;durP2;ratioP2;P2;SDS_P1;SDS_P2;PMS_P1;PMS_P2;Temp;Humidity;BMP_temperature;BMP_pressure;BME280_temperature;BME280_humidity;BME280_pressure;Samples;Min_cycle;Max_cycle;Signal;HPM_P1;HPM_P2
2021/08/20 00:02:26;;;;;;;3.95;1.98;;;;;;;20.04;89.51;96270.31;4976361;28;20207;-74
2021/08/20 00:04:53;;;;;;;3.25;2.13;;;;;;;19.94;89.79;96271.94;4975950;28;20735;-74
2021/08/20 00:07:19;;;;;;;6.35;2.30;;;;;;;20.00;88.79;96271.81;4975648;28;20216;-73
2021/08/20 00:09:46;;;;;;;5.15;2.30;;;;;;;19.90;89.09;96270.75;4975623;28;20227;-74
2021/08/20 00:12:12;;;;;;;5.68;2.30;;;;;;;19.94;88.73;96267.41;4976274;28;20207;-72
2021/08/20 00:14:39;;;;;;;4.97;2.30;;;;;;;19.90;88.68;96276.91;4975775;28;20234;-71
2021/08/20 00:17:06;;;;;;;4.22;2.35;;;;;;;19.92;88.36;96269.50;4975141;28;20304;-70
2021/08/20 00:19:35;;;;;;;4.63;3.05;;;;;;;20.06;89.58;96265.53;4976638;28;20215;-68
2021/08/20 00:22:04;;;;;;;6.10;2.45;;;;;;;19.96;88.90;96259.97;4976536;28;20207;-71
2021/08/20 00:24:30;;;;;;;4.43;2.20;;;;;;;19.85;90.30;96267.97;4976170;28;20234;-71
2021/08/20 00:26:57;;;;;;;2.83;2.33;;;;;;;19.74;91.20;96268.75;4972075;28;20230;-69
2021/08/20 00:29:23;;;;;;;2.85;2.17;;;;;;;19.68;91.24;96262.50;4977107;28;20227;-69
2021/08/20 00:31:50;;;;;;;5.60;2.28;;;;;;;19.63;89.90;96259.69;4975864;28;20207;-69
2021/08/20 00:34:16;;;;;;;4.00;2.45;;;;;;;19.61;89.61;96267.16;4975496;28;20753;-69
2021/08/20 00:36:45;;;;;;;3.42;2.20;;;;;;;19.85;89.19;96265.28;4974866;28;20573;-69
2021/08/20 00:39:12;;;;;;;3.85;1.83;;;;;;;19.74;90.06;96266.91;4976349;28;20207;-69
2021/08/20 00:41:40;;;;;;;2.75;2.05;;;;;;;19.88;90.48;96262.97;4974822;28;20706;-69
2021/08/20 00:44:07;;;;;;;5.45;2.30;;;;;;;19.77;89.74;96260.28;4976043;28;20230;-69
2021/08/20 00:46:33;;;;;;;4.40;2.30;;;;;;;19.72;89.50;96270.88;4974649;28;20241;-71
2021/08/20 00:49:00;;;;;;;6.20;2.08;;;;;;;19.74;89.61;96256.22;4975549;28;20223;-70
2021/08/20 00:51:29;;;;;;;6.05;2.30;;;;;;;19.84;89.21;96256.44;4975512;28;20210;-68
2021/08/20 00:53:58;;;;;;;3.47;2.20;;;;;;;19.85;90.96;96257.25;4975467;28;20242;-71
2021/08/20 00:56:24;;;;;;;6.65;2.45;;;;;;;19.69;90.83;96256.09;4974530;28;20223;-68
2021/08/20 00:58:52;;;;;;;4.30;2.10;;;;;;;19.73;90.46;96253.78;4975937;28;20591;-70
2021/08/20 01:01:18;;;;;;;3.33;2.00;;;;;;;19.59;90.71;96255.06;4975418;28;20210;-70
2021/08/20 01:03:45;;;;;;;2.70;2.00;;;;;;;19.66;89.93;96261.09;4975208;28;20227;-69
2021/08/20 01:06:11;;;;;;;4.93;2.30;;;;;;;19.65;89.87;96246.09;4973794;28;20210;-70
2021/08/20 01:08:39;;;;;;;5.55;2.40;;;;;;;19.47;90.80;96246.19;4975582;28;20211;-70
2021/08/20 01:11:09;;;;;;;3.50;2.35;;;;;;;19.48;91.76;96249.72;4975195;28;20218;-70
2021/08/20 01:13:37;;;;;;;3.88;2.70;;;;;;;19.35;91.62;96239.25;4975288;28;20231;-69
2021/08/20 01:16:05;;;;;;;3.60;2.22;;;;;;;19.24;91.95;96248.03;4974543;28;20238;-69
2021/08/20 01:18:34;;;;;;;3.13;2.50;;;;;;;19.41;91.68;96231.09;4975348;28;20211;-69
2021/08/20 01:21:03;;;;;;;3.00;2.28;;;;;;;19.46;90.60;96231.19;4974732;28;20218;-71
2021/08/20 01:23:30;;;;;;;4.35;2.70;;;;;;;19.39;90.44;96232.38;4974912;28;20215;-71
2021/08/20 01:25:59;;;;;;;3.90;2.10;;;;;;;19.37;90.89;96231.78;4971681;28;20210;-69
2021/08/20 01:28:26;;;;;;;3.42;1.90;;;;;;;19.25;91.33;96228.28;4974545;28;20226;-74
2021/08/20 01:30:58;;;;;;;3.28;2.20;;;;;;;19.50;90.71;96220.88;4976014;28;20311;-68
2021/08/20 01:33:25;;;;;;;3.97;2.13;;;;;;;19.11;91.41;96224.22;4978358;28;20222;-69
2021/08/20 01:35:51;;;;;;;3.97;2.55;;;;;;;19.14;91.67;96234.41;4977807;28;20219;-68
2021/08/20 01:38:18;;;;;;;6.60;2.30;;;;;;;19.18;91.40;96233.75;4978216;28;20203;-71
2021/08/20 01:40:44;;;;;;;3.30;2.20;;;;;;;19.02;92.04;96234.38;4979451;28;20765;-70
2021/08/20 01:43:12;;;;;;;5.03;2.80;;;;;;;19.21;91.84;96229.81;4977861;28;20218;-69
2021/08/20 01:45:39;;;;;;;5.78;2.55;;;;;;;19.04;92.09;96226.94;4977602;28;20210;-70
2021/08/20 01:48:06;;;;;;;5.15;2.80;;;;;;;18.91;93.56;96223.66;4978542;28;20691;-70
2021/08/20 01:50:33;;;;;;;8.57;2.70;;;;;;;18.96;93.44;96229.13;4978636;28;20223;-71
2021/08/20 01:52:59;;;;;;;3.88;2.35;;;;;;;18.79;93.90;96221.97;4977830;28;20203;-68
2021/08/20 01:55:26;;;;;;;5.32;2.45;;;;;;;18.97;92.49;96226.22;4977762;28;20237;-70
2021/08/20 01:57:52;;;;;;;5.93;2.83;;;;;;;18.95;92.26;96227.50;4978090;28;20207;-71
2021/08/20 02:00:21;;;;;;;4.72;2.72;;;;;;;19.15;91.88;96228.84;4978292;28;20611;-69
2021/08/20 02:02:47;;;;;;;5.32;2.75;;;;;;;18.74;93.15;96228.03;4977981;28;20245;-68
2021/08/20 02:05:14;;;;;;;4.30;2.72;;;;;;;18.78;93.02;96234.53;4977663;28;20227;-68
2021/08/20 02:07:40;;;;;;;10.05;2.80;;;;;;;18.71;93.24;96235.66;4977562;28;20214;-72
2021/08/20 02:10:09;;;;;;;4.32;2.70;;;;;;;18.97;92.55;96236.91;4977893;28;20227;-71
2021/08/20 02:12:36;;;;;;;3.78;2.50;;;;;;;18.69;92.78;96238.56;4978411;28;21256;-71
2021/08/20 02:15:03;;;;;;;5.78;2.55;;;;;;;18.56;94.01;96243.28;4977273;28;20603;-68
2021/08/20 02:17:31;;;;;;;4.78;2.92;;;;;;;18.74;94.75;96241.38;4977114;28;20667;-70
2021/08/20 02:19:57;;;;;;;4.40;2.85;;;;;;;18.74;94.03;96243.25;4978314;28;20678;-71
2021/08/20 02:22:24;;;;;;;6.00;3.53;;;;;;;18.89;93.46;96241.78;4978005;28;20207;-71
2021/08/20 02:24:52;;;;;;;6.15;3.47;;;;;;;18.96;93.24;96247.81;4977563;28;20223;-71
2021/08/20 02:27:19;;;;;;;5.68;2.80;;;;;;;18.96;93.61;96242.47;4974927;28;20214;-70
2021/08/20 02:29:46;;;;;;;5.88;3.17;;;;;;;18.99;93.38;96247.34;4977591;28;20721;-69
2021/08/20 02:32:12;;;;;;;5.45;3.17;;;;;;;19.03;93.54;96245.88;4973969;28;21000;-69
2021/08/20 02:34:40;;;;;;;4.95;3.20;;;;;;;19.31;93.27;96246.06;4977309;28;20231;-69
2021/08/20 02:37:06;;;;;;;5.13;3.33;;;;;;;19.12;93.31;96244.53;4977290;28;20208;-69
2021/08/20 02:39:33;;;;;;;6.10;3.15;;;;;;;19.09;93.43;96248.47;4976910;28;20206;-70
2021/08/20 02:42:00;;;;;;;6.13;3.17;;;;;;;19.20;93.64;96241.53;4978046;28;20203;-69
2021/08/20 02:44:26;;;;;;;6.30;3.10;;;;;;;19.11;94.35;96245.56;4976408;28;20231;-69
2021/08/20 02:46:53;;;;;;;6.47;2.90;;;;;;;19.03;94.42;96252.03;4976336;28;20203;-69
2021/08/20 02:49:19;;;;;;;8.55;3.00;;;;;;;19.03;94.87;96256.56;4977742;28;20242;-69
2021/08/20 02:51:47;;;;;;;4.28;2.70;;;;;;;19.21;94.96;96253.84;4978694;28;20207;-69
2021/08/20 02:54:13;;;;;;;6.50;2.65;;;;;;;19.04;94.91;96252.81;4976545;28;21030;-69
2021/08/20 02:56:40;;;;;;;7.63;3.15;;;;;;;19.12;94.58;96248.00;4976143;28;20515;-69
2021/08/20 02:59:06;;;;;;;6.50;3.50;;;;;;;19.22;93.92;96248.28;4977757;28;20671;-70
2021/08/20 03:01:33;;;;;;;10.50;3.47;;;;;;;19.20;93.86;96244.19;4976867;28;20698;-72
2021/08/20 03:04:00;;;;;;;6.85;2.90;;;;;;;19.18;94.47;96239.09;4977021;28;20233;-74
2021/08/20 03:06:26;;;;;;;9.32;3.30;;;;;;;19.13;95.16;96246.97;4976751;28;20207;-70
2021/08/20 03:08:54;;;;;;;5.95;3.30;;;;;;;19.30;95.26;96241.78;4976978;28;20208;-70
2021/08/20 03:11:20;;;;;;;15.60;4.03;;;;;;;19.17;95.03;96242.81;4976497;28;20233;-74
2021/08/20 03:13:47;;;;;;;13.35;3.00;;;;;;;19.18;94.82;96239.09;4977402;28;20231;-69
2021/08/20 03:16:13;;;;;;;5.45;3.25;;;;;;;19.16;95.51;96245.72;4975799;28;21065;-68
2021/08/20 03:18:40;;;;;;;5.30;3.20;;;;;;;19.08;96.01;96244.19;4976673;28;20211;-72
2021/08/20 03:21:06;;;;;;;5.85;2.75;;;;;;;19.20;95.17;96244.19;4977410;28;20199;-68
2021/08/20 03:23:33;;;;;;;3.80;2.78;;;;;;;19.18;94.82;96251.63;4977076;28;20223;-74
2021/08/20 03:26:01;;;;;;;6.55;2.85;;;;;;;19.35;93.71;96239.25;4973117;28;20702;-73
2021/08/20 03:28:27;;;;;;;5.70;3.30;;;;;;;19.08;93.80;96240.66;4977215;28;20239;-69
2021/08/20 03:30:54;;;;;;;5.85;3.30;;;;;;;19.09;94.36;96247.66;4976861;28;20223;-69
2021/08/20 03:33:20;;;;;;;7.20;3.17;;;;;;;19.15;94.42;96244.88;4976467;28;20199;-69
2021/08/20 03:35:47;;;;;;;4.60;3.33;;;;;;;19.05;95.57;96252.63;4976032;28;20218;-69
2021/08/20 03:38:13;;;;;;;8.32;3.50;;;;;;;19.07;96.06;96247.88;4976669;28;20211;-69
2021/08/20 03:40:40;;;;;;;7.05;3.22;;;;;;;19.12;95.90;96249.88;4976672;28;20222;-69
2021/08/20 03:43:07;;;;;;;5.28;3.28;;;;;;;19.41;94.82;96241.81;4976076;28;20211;-69
2021/08/20 03:45:34;;;;;;;7.38;3.22;;;;;;;19.22;94.13;96242.94;4975993;28;20226;-69
2021/08/20 03:48:00;;;;;;;7.40;3.75;;;;;;;19.25;94.10;96250.47;4976729;28;20214;-69
2021/08/20 03:50:27;;;;;;;5.50;3.15;;;;;;;19.21;94.00;96248.50;4976275;28;20227;-71
2021/08/20 03:52:53;;;;;;;6.00;3.10;;;;;;;19.06;94.41;96238.25;4976564;28;20207;-73
2021/08/20 03:55:20;;;;;;;4.57;2.95;;;;;;;19.15;94.24;96246.75;4975172;28;20231;-70
2021/08/20 03:57:49;;;;;;;5.35;3.20;;;;;;;19.18;94.61;96241.75;4975662;28;20657;-69
2021/08/20 04:00:17;;;;;;;8.23;3.45;;;;;;;19.35;95.57;96244.59;4976765;28;20293;-69
2021/08/20 04:02:44;;;;;;;5.68;3.40;;;;;;;19.12;96.06;96248.00;4976486;28;20207;-70
2021/08/20 04:05:11;;;;;;;8.02;3.47;;;;;;;19.08;95.52;96248.69;4976120;28;20238;-70
2021/08/20 04:07:37;;;;;;;6.35;3.78;;;;;;;19.14;94.96;96253.13;4975946;28;20601;-70
2021/08/20 04:10:04;;;;;;;5.75;3.45;;;;;;;19.19;95.81;96256.72;4976770;28;20234;-70
2021/08/20 04:12:31;;;;;;;6.43;3.42;;;;;;;19.25;95.55;96255.81;4976253;28;20233;-70
2021/08/20 04:14:57;;;;;;;5.50;3.28;;;;;;;19.20;95.84;96247.69;4975987;28;20223;-70
2021/08/20 04:17:25;;;;;;;5.45;3.45;;;;;;;19.39;95.73;96253.75;4975755;28;20203;-69
2021/08/20 04:19:52;;;;;;;5.93;3.58;;;;;;;19.14;95.85;96247.78;4976321;28;20206;-69
2021/08/20 04:22:18;;;;;;;5.80;3.67;;;;;;;19.08;96.13;96256.69;4975925;28;20297;-69
2021/08/20 04:24:44;;;;;;;9.05;3.53;;;;;;;19.14;95.69;96248.63;4976037;28;20234;-70
2021/08/20 04:27:11;;;;;;;5.25;3.45;;;;;;;19.23;95.18;96251.75;4972665;28;20222;-69
2021/08/20 04:29:37;;;;;;;5.10;3.45;;;;;;;19.24;95.66;96258.72;4975305;28;20573;-68
2021/08/20 04:32:04;;;;;;;6.55;3.72;;;;;;;19.20;96.58;96255.69;4976163;28;20207;-68
2021/08/20 04:34:32;;;;;;;5.07;3.40;;;;;;;19.41;95.10;96254.34;4975757;28;20227;-70
2021/08/20 04:36:58;;;;;;;5.88;3.40;;;;;;;19.22;95.02;96252.78;4975221;28;20241;-70
2021/08/20 04:39:25;;;;;;;7.82;3.83;;;;;;;19.12;95.46;96252.56;4975391;28;20595;-74
2021/08/20 04:41:51;;;;;;;6.55;3.92;;;;;;;18.98;96.49;96264.44;4976325;28;20413;-71
2021/08/20 04:44:18;;;;;;;6.65;3.97;;;;;;;19.00;96.39;96259.66;4975332;28;20610;-69
2021/08/20 04:46:44;;;;;;;7.13;4.25;;;;;;;18.89;97.63;96260.47;4974988;28;20207;-69
2021/08/20 04:49:11;;;;;;;7.55;4.30;;;;;;;18.92;97.12;96254.66;4975454;28;20219;-69
2021/08/20 04:51:38;;;;;;;7.38;3.78;;;;;;;19.04;97.27;96261.69;4975402;28;20223;-69
2021/08/20 04:54:06;;;;;;;6.15;4.07;;;;;;;18.88;97.36;96260.69;4974888;28;20944;-69
2021/08/20 04:56:32;;;;;;;6.25;4.20;;;;;;;18.87;97.49;96257.19;4974823;28;20218;-69
2021/08/20 04:58:58;;;;;;;8.73;4.78;;;;;;;18.81;97.80;96268.78;4975552;28;20238;-69
2021/08/20 05:01:25;;;;;;;10.77;5.00;;;;;;;18.83;97.88;96263.25;4975465;28;20211;-69
2021/08/20 05:03:51;;;;;;;10.50;4.57;;;;;;;18.92;97.06;96262.69;4975105;28;20238;-69
2021/08/20 05:06:18;;;;;;;7.63;4.88;;;;;;;18.97;97.50;96260.13;4973468;28;20214;-69
2021/08/20 05:08:46;;;;;;;11.68;5.43;;;;;;;19.30;96.83;96268.50;4975220;28;21009;-69
2021/08/20 05:11:12;;;;;;;9.88;5.50;;;;;;;19.21;95.83;96259.19;4975660;28;20231;-69
2021/08/20 05:13:39;;;;;;;8.48;4.88;;;;;;;19.25;95.85;96269.19;4975355;28;20227;-69
2021/08/20 05:16:05;;;;;;;8.07;4.93;;;;;;;19.32;94.49;96269.06;4974427;28;20223;-69
2021/08/20 05:18:32;;;;;;;9.50;5.70;;;;;;;19.32;93.84;96272.59;4975485;28;20231;-69
2021/08/20 05:20:58;;;;;;;9.65;5.35;;;;;;;19.30;94.32;96269.31;4974391;28;20203;-70
2021/08/20 05:23:25;;;;;;;11.20;5.55;;;;;;;19.41;94.29;96268.53;4975388;28;20697;-70
2021/08/20 05:25:53;;;;;;;10.85;5.10;;;;;;;19.74;94.07;96269.59;4971427;28;21213;-69
2021/08/20 05:28:20;;;;;;;8.45;4.95;;;;;;;19.56;93.92;96278.75;4975034;28;20207;-69
2021/08/20 05:30:47;;;;;;;9.73;5.10;;;;;;;19.68;93.74;96275.84;4974863;28;20515;-69
2021/08/20 05:33:13;;;;;;;6.22;4.43;;;;;;;19.64;94.61;96290.75;4975098;28;20302;-70
2021/08/20 05:35:40;;;;;;;8.48;4.45;;;;;;;19.59;94.85;96289.81;4973492;28;20207;-68
2021/08/20 05:38:06;;;;;;;9.77;4.80;;;;;;;19.47;93.23;96296.97;4975055;28;20311;-68
2021/08/20 05:40:33;;;;;;;10.30;4.95;;;;;;;19.54;94.24;96296.88;4974852;28;20200;-69
2021/08/20 05:43:02;;;;;;;8.88;5.30;;;;;;;19.50;96.08;96311.75;4974599;28;20226;-69
2021/08/20 05:45:29;;;;;;;10.20;5.10;;;;;;;19.17;96.19;96311.44;4974125;28;20696;-70
2021/08/20 05:47:55;;;;;;;8.40;5.22;;;;;;;19.17;96.12;96306.09;4974916;28;20207;-68
2021/08/20 05:50:22;;;;;;;10.05;5.55;;;;;;;19.32;95.29;96306.47;4974494;28;20242;-70
2021/08/20 05:52:48;;;;;;;9.40;5.57;;;;;;;19.37;94.97;96307.41;4974972;28;20207;-71
2021/08/20 05:55:15;;;;;;;10.38;5.20;;;;;;;19.57;93.74;96304.47;4973856;28;20241;-67
2021/08/20 05:57:41;;;;;;;11.35;5.78;;;;;;;19.70;93.35;96305.88;4974696;28;20589;-70
2021/08/20 06:00:10;;;;;;;8.45;4.80;;;;;;;19.94;93.17;96298.69;4974900;28;20404;-70
2021/08/20 06:02:39;;;;;;;9.98;5.35;;;;;;;19.89;93.28;96302.00;4974144;28;20718;-71
2021/08/20 06:05:07;;;;;;;8.57;4.93;;;;;;;19.88;93.25;96303.09;4973891;28;20235;-70
2021/08/20 06:07:34;;;;;;;9.98;5.07;;;;;;;19.89;92.55;96295.88;4973623;28;20210;-71
2021/08/20 06:10:00;;;;;;;12.52;5.35;;;;;;;19.83;92.97;96302.97;4975177;28;20207;-71
2021/08/20 06:12:29;;;;;;;9.77;5.45;;;;;;;19.90;92.81;96309.00;4974088;28;20215;-71
2021/08/20 06:14:55;;;;;;;11.63;5.43;;;;;;;19.98;92.24;96311.34;4973612;28;20317;-71
2021/08/20 06:17:23;;;;;;;9.10;4.82;;;;;;;20.09;92.44;96318.56;4974481;28;20215;-70
2021/08/20 06:19:50;;;;;;;8.88;4.88;;;;;;;20.10;91.89;96320.22;4978612;28;20601;-68
2021/08/20 06:22:16;;;;;;;9.50;5.57;;;;;;;19.92;93.38;96316.81;4977759;28;20204;-71
2021/08/20 06:24:43;;;;;;;9.15;4.88;;;;;;;19.87;93.24;96325.53;4977810;28;21087;-69
2021/08/20 06:27:09;;;;;;;14.50;5.40;;;;;;;20.07;92.56;96327.88;4977426;28;20230;-70
2021/08/20 06:29:36;;;;;;;11.10;5.05;;;;;;;19.93;93.03;96324.59;4977829;28;20690;-70
2021/08/20 06:32:02;;;;;;;8.48;4.72;;;;;;;20.16;91.71;96331.81;4976759;28;20234;-68
2021/08/20 06:34:32;;;;;;;8.43;4.47;;;;;;;20.27;91.86;96323.78;4977948;28;20227;-71
2021/08/20 06:36:58;;;;;;;8.90;4.78;;;;;;;20.24;90.99;96332.31;4976035;28;20211;-71
2021/08/20 06:39:25;;;;;;;10.77;5.22;;;;;;;20.38;90.51;96334.50;4976786;28;20963;-71
2021/08/20 06:41:51;;;;;;;10.43;4.85;;;;;;;20.27;90.59;96337.19;4977131;28;20210;-69
2021/08/20 06:44:18;;;;;;;8.20;4.60;;;;;;;19.99;90.95;96344.28;4975134;28;20231;-70
2021/08/20 06:46:44;;;;;;;8.68;4.72;;;;;;;20.11;90.29;96339.75;4974395;28;20207;-68
2021/08/20 06:49:11;;;;;;;8.88;4.13;;;;;;;20.27;89.56;96343.31;4976453;28;20211;-71
2021/08/20 06:51:38;;;;;;;7.60;4.53;;;;;;;20.63;88.98;96331.53;4975331;28;20579;-70
2021/08/20 06:54:05;;;;;;;9.52;4.55;;;;;;;20.59;88.64;96344.56;4974963;28;20434;-71
2021/08/20 06:56:31;;;;;;;7.63;4.78;;;;;;;20.77;88.17;96338.28;4976144;28;20203;-69
2021/08/20 06:58:58;;;;;;;8.77;4.55;;;;;;;20.99;86.54;96340.88;4976270;28;20230;-71
2021/08/20 07:01:25;;;;;;;8.20;4.50;;;;;;;20.94;87.09;96335.44;4977287;28;20557;-69
2021/08/20 07:03:51;;;;;;;9.23;4.88;;;;;;;21.19;85.44;96337.78;4976171;28;20779;-69
2021/08/20 07:06:21;;;;;;;8.38;4.85;;;;;;;21.45;85.97;96338.00;4976279;28;20579;-69
2021/08/20 07:08:50;;;;;;;9.07;4.63;;;;;;;21.44;84.02;96333.69;4976106;28;20652;-69
2021/08/20 07:11:16;;;;;;;10.52;4.95;;;;;;;21.24;84.19;96338.66;4976792;28;20235;-69
2021/08/20 07:13:43;;;;;;;7.72;4.57;;;;;;;21.51;82.56;96339.72;4976045;28;20588;-69
2021/08/20 07:16:09;;;;;;;11.45;4.50;;;;;;;21.52;80.97;96349.41;4975712;28;20226;-69
2021/08/20 07:18:36;;;;;;;7.57;4.68;;;;;;;21.65;80.15;96349.09;4976068;28;20424;-69
2021/08/20 07:21:03;;;;;;;7.50;4.20;;;;;;;21.56;79.64;96353.22;4976878;28;20199;-69
2021/08/20 07:23:29;;;;;;;8.70;4.22;;;;;;;21.86;78.27;96354.56;4976378;28;20226;-69
2021/08/20 07:25:59;;;;;;;9.75;4.20;;;;;;;21.95;78.58;96354.97;4975891;28;20207;-69
2021/08/20 07:28:26;;;;;;;6.28;4.20;;;;;;;21.81;78.21;96356.34;4975865;28;20207;-69
2021/08/20 07:30:52;;;;;;;6.90;4.05;;;;;;;22.17;76.13;96345.94;4976681;28;20238;-69
2021/08/20 07:33:19;;;;;;;9.45;4.32;;;;;;;22.02;77.31;96355.63;4975849;28;20199;-69
2021/08/20 07:35:45;;;;;;;8.60;3.97;;;;;;;22.36;75.95;96348.13;4975120;28;20214;-69
2021/08/20 07:38:12;;;;;;;7.82;4.07;;;;;;;22.41;76.54;96352.75;4976697;28;20492;-69
2021/08/20 07:40:38;;;;;;;6.47;3.80;;;;;;;22.45;73.49;96357.38;4975804;28;20461;-69
2021/08/20 07:43:06;;;;;;;6.97;3.83;;;;;;;22.49;73.36;96352.34;4975902;28;20207;-69
2021/08/20 07:45:33;;;;;;;6.70;3.92;;;;;;;22.46;73.92;96353.63;4975567;28;20223;-69
2021/08/20 07:47:59;;;;;;;5.88;3.70;;;;;;;22.31;74.68;96353.44;4975862;28;20203;-69
2021/08/20 07:50:26;;;;;;;7.15;3.40;;;;;;;22.79;70.34;96365.09;4975615;28;20207;-69
2021/08/20 07:52:53;;;;;;;6.03;3.38;;;;;;;22.49;71.70;96355.00;4976311;28;20230;-69
2021/08/20 07:55:19;;;;;;;5.65;3.25;;;;;;;22.46;72.61;96356.31;4974508;28;20246;-69
2021/08/20 07:57:47;;;;;;;5.18;3.25;;;;;;;22.64;70.15;96358.72;4976252;28;20698;-69
2021/08/20 08:00:18;;;;;;;5.68;3.10;;;;;;;22.99;70.71;96359.22;4975495;28;20427;-69
2021/08/20 08:02:45;;;;;;;5.78;3.10;;;;;;;22.74;70.58;96366.91;4976158;28;20196;-68
2021/08/20 08:05:11;;;;;;;8.95;3.33;;;;;;;22.51;69.42;96355.59;4975121;28;20234;-68
2021/08/20 08:07:38;;;;;;;8.48;3.58;;;;;;;22.39;70.82;96361.06;4975526;28;20747;-68
2021/08/20 08:10:06;;;;;;;6.40;3.28;;;;;;;22.67;71.10;96360.09;4975236;28;20690;-68
2021/08/20 08:12:33;;;;;;;7.60;3.70;;;;;;;22.77;69.63;96363.72;4975861;28;20706;-69
2021/08/20 08:14:59;;;;;;;4.72;2.92;;;;;;;23.13;67.82;96360.44;4975260;28;20223;-68
2021/08/20 08:17:27;;;;;;;8.35;3.53;;;;;;;23.42;70.42;96358.09;4974939;28;20218;-69
2021/08/20 08:19:53;;;;;;;6.68;3.33;;;;;;;23.17;71.36;96354.31;4975068;28;20207;-69
2021/08/20 08:22:20;;;;;;;5.35;3.42;;;;;;;23.24;69.65;96363.00;4975315;28;20329;-68
2021/08/20 08:24:47;;;;;;;8.05;3.63;;;;;;;23.30;70.01;96361.19;4974951;28;20607;-69
2021/08/20 08:27:13;;;;;;;7.13;3.67;;;;;;;23.31;68.03;96364.41;4974051;28;20207;-69
2021/08/20 08:29:40;;;;;;;6.22;3.60;;;;;;;23.12;67.22;96365.00;4975088;28;20230;-69
2021/08/20 08:32:07;;;;;;;5.57;3.17;;;;;;;22.99;65.89;96364.59;4975303;28;20226;-68
2021/08/20 08:34:35;;;;;;;5.40;3.22;;;;;;;23.66;64.83;96362.13;4975425;28;20730;-69
2021/08/20 08:37:01;;;;;;;7.15;3.60;;;;;;;23.35;66.70;96368.22;4974024;28;20960;-68
2021/08/20 08:39:27;;;;;;;6.63;3.08;;;;;;;23.38;65.07;96373.13;4974975;28;21481;-69
2021/08/20 08:41:54;;;;;;;9.50;3.50;;;;;;;23.29;67.02;96367.63;4974431;28;20700;-69
2021/08/20 08:44:20;;;;;;;7.70;3.20;;;;;;;23.40;66.42;96368.28;4976228;28;20227;-69
2021/08/20 08:46:48;;;;;;;7.75;3.65;;;;;;;23.48;66.15;96367.03;4974382;28;20575;-70
2021/08/20 08:49:20;;;;;;;6.80;4.03;;;;;;;23.70;63.28;96371.34;4975204;28;20214;-70
2021/08/20 08:51:49;;;;;;;7.97;4.22;;;;;;;23.44;65.90;96374.78;4974869;28;20227;-69
2021/08/20 08:54:16;;;;;;;9.57;3.58;;;;;;;23.67;67.52;96369.09;4975331;28;20231;-70
2021/08/20 08:56:43;;;;;;;7.80;3.42;;;;;;;23.54;66.74;96357.94;4973583;28;20206;-70
2021/08/20 08:59:10;;;;;;;6.78;3.38;;;;;;;23.59;66.63;96372.25;4974959;28;20307;-69
2021/08/20 09:01:38;;;;;;;9.30;4.43;;;;;;;23.48;64.25;96370.50;4975101;28;20562;-70
2021/08/20 09:04:12;;;;;;;5.53;3.47;;;;;;;23.90;66.97;96378.78;4974731;28;20301;-69
2021/08/20 09:06:41;;;;;;;7.05;3.60;;;;;;;24.12;71.38;96373.03;4973871;28;20218;-70
2021/08/20 09:09:10;;;;;;;6.88;3.92;;;;;;;24.21;63.53;96373.34;4974796;28;20207;-69
2021/08/20 09:11:37;;;;;;;6.03;3.78;;;;;;;24.11;64.33;96371.41;4975048;28;20239;-69
2021/08/20 09:14:04;;;;;;;5.68;3.45;;;;;;;23.96;66.61;96367.78;4974975;28;21415;-70
2021/08/20 09:16:39;;;;;;;9.00;4.22;;;;;;;24.09;62.86;96370.84;4974067;28;20398;-70
2021/08/20 09:19:15;;;;;;;6.03;3.60;;;;;;;24.53;61.02;96366.91;4974582;28;20218;-70
2021/08/20 09:21:43;;;;;;;6.35;3.58;;;;;;;24.13;63.84;96369.28;4974326;28;20207;-70
2021/08/20 09:24:30;;;;;;;8.10;3.95;;;;;;;24.47;63.15;96367.13;4974833;28;20238;-69
2021/08/20 09:27:18;;;;;;;6.57;4.13;;;;;;;24.50;63.07;96367.41;4973018;28;20288;-69
2021/08/20 09:30:03;;;;;;;7.03;4.03;;;;;;;24.57;63.10;96362.63;4974817;28;20208;-69
2021/08/20 09:32:29;;;;;;;6.75;4.25;;;;;;;24.21;63.99;96360.72;4974162;28;20504;-69
2021/08/20 09:34:58;;;;;;;12.50;4.28;;;;;;;24.04;64.83;96361.94;4974351;28;20603;-69
2021/08/20 09:37:25;;;;;;;6.88;4.10;;;;;;;24.18;66.97;96365.81;4973492;28;20230;-70
2021/08/20 09:39:58;;;;;;;9.65;4.60;;;;;;;24.13;64.78;96368.47;4974781;28;20203;-69
2021/08/20 09:42:25;;;;;;;9.13;4.25;;;;;;;24.53;63.34;96361.50;4974601;28;20199;-70
2021/08/20 09:45:17;;;;;;;8.35;4.32;;;;;;;24.83;62.04;96365.16;4974422;28;20753;-71
2021/08/20 09:47:44;;;;;;;6.78;4.50;;;;;;;25.14;61.51;96361.59;4974104;28;20207;-70
2021/08/20 09:50:11;;;;;;;6.25;3.83;;;;;;;25.47;60.80;96361.13;4974410;28;20199;-71
2021/08/20 09:52:38;;;;;;;7.28;4.53;;;;;;;25.29;60.77;96353.53;4974658;28;20238;-70
2021/08/20 09:55:07;;;;;;;6.82;4.30;;;;;;;25.42;58.74;96361.09;4977990;28;20246;-70
2021/08/20 09:57:37;;;;;;;7.78;4.00;;;;;;;25.01;61.39;96351.22;4977288;28;20215;-71
2021/08/20 10:00:07;;;;;;;7.18;3.67;;;;;;;25.24;59.82;96353.50;4977225;28;20235;-71
2021/08/20 10:02:36;;;;;;;6.53;3.20;;;;;;;25.43;59.58;96351.94;4977659;28;20206;-72
2021/08/20 10:05:04;;;;;;;5.40;2.70;;;;;;;25.19;59.19;96356.22;4977870;28;20616;-68
2021/08/20 10:07:34;;;;;;;5.55;3.35;;;;;;;25.52;57.77;96347.66;4976845;28;20208;-71
2021/08/20 10:10:02;;;;;;;6.75;4.00;;;;;;;25.34;56.52;96348.13;4977936;28;20207;-70
2021/08/20 10:12:31;;;;;;;6.15;3.00;;;;;;;25.40;57.43;96347.09;4977643;28;20906;-69
2021/08/20 10:14:57;;;;;;;5.72;3.45;;;;;;;25.80;60.05;96349.88;4976638;28;20227;-71
2021/08/20 10:17:25;;;;;;;4.70;3.08;;;;;;;25.89;58.36;96344.50;4976921;28;20214;-69
2021/08/20 10:19:51;;;;;;;7.80;3.35;;;;;;;26.35;59.60;96339.91;4977411;28;20215;-69
2021/08/20 10:22:18;;;;;;;6.50;3.50;;;;;;;26.52;60.02;96338.53;4977647;28;20636;-69
2021/08/20 10:24:45;;;;;;;6.47;3.75;;;;;;;27.14;60.09;96335.09;4976929;28;20231;-69
2021/08/20 10:27:15;;;;;;;7.53;3.22;;;;;;;27.16;57.80;96340.22;4974251;28;20690;-69
2021/08/20 10:29:47;;;;;;;6.70;2.70;;;;;;;27.12;54.08;96341.88;4976735;28;20203;-69
2021/08/20 10:32:15;;;;;;;4.80;2.50;;;;;;;27.03;56.51;96340.84;4977066;28;20742;-69
2021/08/20 10:34:43;;;;;;;3.63;2.35;;;;;;;26.49;55.39;96344.50;4976851;28;20788;-70
2021/08/20 10:37:12;;;;;;;3.72;2.30;;;;;;;26.19;55.49;96346.38;4976377;28;20211;-70
2021/08/20 10:39:41;;;;;;;5.65;2.83;;;;;;;25.73;57.35;96349.34;4976301;28;20210;-70
2021/08/20 10:42:10;;;;;;;5.63;3.03;;;;;;;26.06;61.14;96346.94;4977541;28;20551;-70
2021/08/20 10:44:38;;;;;;;4.63;2.38;;;;;;;26.50;59.89;96337.97;4976765;28;20235;-70
2021/08/20 10:47:10;;;;;;;5.22;2.85;;;;;;;26.28;58.90;96342.84;4976096;28;20212;-70
2021/08/20 10:49:46;;;;;;;4.82;3.03;;;;;;;25.49;59.43;96340.09;4976750;28;20657;-70
2021/08/20 10:52:31;;;;;;;5.18;2.75;;;;;;;25.89;58.24;96341.78;4977089;28;20706;-70
2021/08/20 10:55:23;;;;;;;5.45;3.20;;;;;;;26.05;57.35;96346.09;4975918;28;20617;-70
2021/08/20 10:58:04;;;;;;;4.90;2.80;;;;;;;26.56;57.77;96345.00;4977161;28;20211;-70
2021/08/20 11:00:32;;;;;;;4.80;2.90;;;;;;;26.73;55.86;96345.50;4976440;28;20207;-70
2021/08/20 11:03:01;;;;;;;3.92;2.45;;;;;;;26.89;55.30;96338.97;4977065;28;20203;-70
2021/08/20 11:05:47;;;;;;;7.63;3.00;;;;;;;26.96;56.23;96336.81;4975010;28;21164;-70
2021/08/20 11:08:37;;;;;;;4.22;2.58;;;;;;;27.70;55.02;96336.47;4976008;28;20679;-70
2021/08/20 11:11:04;;;;;;;6.38;2.55;;;;;;;27.05;56.43;96332.44;4976295;28;20211;-70
2021/08/20 11:13:31;;;;;;;5.32;2.72;;;;;;;27.31;53.55;96332.84;4977140;28;20231;-71
2021/08/20 11:15:59;;;;;;;4.22;2.53;;;;;;;26.83;54.04;96337.38;4975574;28;20204;-68
2021/08/20 11:18:50;;;;;;;5.00;2.58;;;;;;;27.26;52.76;96334.78;4976213;28;20582;-72
2021/08/20 11:21:45;;;;;;;5.68;2.40;;;;;;;27.34;54.20;96337.72;4972454;28;20211;-71
2021/08/20 11:24:17;;;;;;;5.80;2.70;;;;;;;26.78;50.27;96338.22;4976827;28;20231;-72
2021/08/20 11:26:44;;;;;;;4.63;2.40;;;;;;;25.93;52.59;96344.78;4972996;28;20215;-72
2021/08/20 11:29:13;;;;;;;6.10;2.42;;;;;;;26.01;53.75;96336.94;4976696;28;20211;-71
2021/08/20 11:31:39;;;;;;;3.42;2.40;;;;;;;25.94;53.08;96341.81;4975878;28;20207;-71
2021/08/20 11:34:07;;;;;;;4.40;2.35;;;;;;;26.41;54.72;96333.41;4975976;28;20234;-71
2021/08/20 11:36:34;;;;;;;3.67;2.25;;;;;;;25.79;55.78;96338.28;4975356;28;20572;-71